createdAt,value
2022-12-11T00:02:07.752Z,50.42
2022-12-11T00:04:34.095Z,59.80
2022-12-11T00:07:00.357Z,45.80
2022-12-11T00:09:26.617Z,47.97
2022-12-11T00:11:52.889Z,39.75
2022-12-11T00:14:19.274Z,49.13
2022-12-11T00:16:47.638Z,44.20
2022-12-11T00:19:13.930Z,46.90
2022-12-11T00:21:40.208Z,40.97
2022-12-11T00:24:06.744Z,44.22
2022-12-11T00:26:33.221Z,41.25
2022-12-11T00:28:59.447Z,51.80
2022-12-11T00:31:25.778Z,48.00
2022-12-11T00:33:53.461Z,41.40
2022-12-11T00:36:21.944Z,45.78
2022-12-11T00:38:48.979Z,45.92
2022-12-11T00:41:16.387Z,45.65
2022-12-11T00:43:42.820Z,47.80
2022-12-11T00:46:09.303Z,36.33
2022-12-11T00:48:35.691Z,56.28
2022-12-11T00:51:03.361Z,58.80
2022-12-11T00:53:29.731Z,46.83
2022-12-11T00:55:55.992Z,49.13
2022-12-11T00:58:22.710Z,41.88
2022-12-11T01:00:51.690Z,43.20
2022-12-11T01:03:17.953Z,61.38
2022-12-11T01:05:51.109Z,49.58
2022-12-11T01:08:18.842Z,51.17
2022-12-11T01:10:45.174Z,66.50
2022-12-11T01:13:11.880Z,52.90
2022-12-11T01:15:41.630Z,40.10
2022-12-11T01:18:08.545Z,46.00
2022-12-11T01:20:34.826Z,62.00
2022-12-11T01:23:01.171Z,50.45
2022-12-11T01:25:28.810Z,46.50
2022-12-11T01:27:55.530Z,46.50
2022-12-11T01:30:22.580Z,52.78
2022-12-11T01:32:48.998Z,57.40
2022-12-11T01:35:15.794Z,38.95
2022-12-11T01:37:42.131Z,51.33
2022-12-11T01:40:09.281Z,50.97
2022-12-11T01:42:37.205Z,50.95
2022-12-11T01:45:24.640Z,52.80
2022-12-11T01:47:54.862Z,52.88
2022-12-11T01:50:21.221Z,43.73
2022-12-11T01:52:48.110Z,37.58
2022-12-11T01:55:14.509Z,46.90
2022-12-11T01:57:43.172Z,58.83
2022-12-11T02:00:10.081Z,51.05
2022-12-11T02:02:39.332Z,44.17
2022-12-11T02:05:06.310Z,56.10
2022-12-11T02:07:43.802Z,52.58
2022-12-11T02:10:10.867Z,44.08
2022-12-11T02:12:39.334Z,43.25
2022-12-11T02:15:10.212Z,39.45
2022-12-11T02:17:40.308Z,61.03
2022-12-11T02:20:10.291Z,37.65
2022-12-11T02:22:47.831Z,33.15
2022-12-11T02:25:20.022Z,41.92
2022-12-11T02:27:47.577Z,43.30
2022-12-11T02:30:16.266Z,54.42
2022-12-11T02:32:45.170Z,49.53
2022-12-11T02:35:15.000Z,56.30
2022-12-11T02:37:43.174Z,38.65
2022-12-11T02:40:11.182Z,33.43
2022-12-11T02:42:38.618Z,43.47
2022-12-11T02:45:07.113Z,38.92
2022-12-11T02:47:35.352Z,41.13
2022-12-11T02:50:03.271Z,35.97
2022-12-11T02:52:31.423Z,34.17
2022-12-11T02:55:00.422Z,37.77
2022-12-11T02:57:28.868Z,35.75
2022-12-11T02:59:55.138Z,34.85
2022-12-11T03:02:21.449Z,31.67
2022-12-11T03:04:49.199Z,37.40
2022-12-11T03:07:17.616Z,35.92
2022-12-11T03:09:44.727Z,32.92
2022-12-11T03:12:12.460Z,28.77
2022-12-11T03:14:40.076Z,27.10
2022-12-11T03:17:11.811Z,25.13
2022-12-11T03:19:39.764Z,28.58
2022-12-11T03:22:09.871Z,29.40
2022-12-11T03:24:38.683Z,27.33
2022-12-11T03:27:11.348Z,31.35
2022-12-11T03:29:39.843Z,33.22
2022-12-11T03:32:07.882Z,26.58
2022-12-11T03:34:38.264Z,23.65
2022-12-11T03:37:04.975Z,29.40
2022-12-11T03:39:35.623Z,32.67
2022-12-11T03:42:03.336Z,26.92
2022-12-11T03:44:30.127Z,30.52
2022-12-11T03:46:57.127Z,34.85
2022-12-11T03:49:26.564Z,29.48
2022-12-11T03:51:54.171Z,26.75
2022-12-11T03:54:20.660Z,22.73
2022-12-11T03:56:48.895Z,23.25
2022-12-11T03:59:15.164Z,24.37
2022-12-11T04:01:41.912Z,26.73
2022-12-11T04:04:08.265Z,19.70
2022-12-11T04:06:34.604Z,28.65
2022-12-11T04:09:00.856Z,20.58
2022-12-11T04:11:27.136Z,28.35
2022-12-11T04:13:54.761Z,20.80
2022-12-11T04:16:21.054Z,24.30
2022-12-11T04:18:47.345Z,24.52
2022-12-11T04:21:13.600Z,23.05
2022-12-11T04:23:40.210Z,20.63
2022-12-11T04:26:07.180Z,21.50
2022-12-11T04:28:33.723Z,31.45
2022-12-11T04:31:01.876Z,37.83
2022-12-11T04:33:28.302Z,23.53
2022-12-11T04:35:54.634Z,21.30
2022-12-11T04:38:21.005Z,25.33
2022-12-11T04:40:47.281Z,25.75
2022-12-11T04:43:13.561Z,26.65
2022-12-11T04:45:39.867Z,25.35
2022-12-11T04:48:07.559Z,23.00
2022-12-11T04:50:33.821Z,24.40
2022-12-11T04:53:00.115Z,24.50
2022-12-11T04:55:26.352Z,23.63
2022-12-11T04:57:52.591Z,25.00
2022-12-11T05:00:18.946Z,21.77
2022-12-11T05:02:45.235Z,22.90
2022-12-11T05:05:13.354Z,26.67
2022-12-11T05:07:40.038Z,27.70
2022-12-11T05:10:06.973Z,26.67
2022-12-11T05:12:33.215Z,27.10
2022-12-11T05:14:59.498Z,20.17
2022-12-11T05:17:25.736Z,30.77
2022-12-11T05:19:52.007Z,27.98
2022-12-11T05:22:19.621Z,22.75
2022-12-11T05:24:46.045Z,26.27
2022-12-11T05:27:12.308Z,26.15
2022-12-11T05:29:38.564Z,28.77
2022-12-11T05:32:04.956Z,28.50
2022-12-11T05:34:31.202Z,26.52
2022-12-11T05:36:57.430Z,29.40
2022-12-11T05:39:25.058Z,29.40
2022-12-11T05:41:51.360Z,32.22
2022-12-11T05:44:17.602Z,31.35
2022-12-11T05:46:43.876Z,27.52
2022-12-11T05:49:10.468Z,26.15
2022-12-11T05:51:36.777Z,28.90
2022-12-11T05:54:03.152Z,31.23
2022-12-11T05:56:31.931Z,32.67
2022-12-11T05:58:58.922Z,26.63
2022-12-11T06:01:25.893Z,26.45
2022-12-11T06:03:52.921Z,38.40
2022-12-11T06:06:19.173Z,29.08
2022-12-11T06:08:45.592Z,25.60
2022-12-11T06:11:12.145Z,29.83
2022-12-11T06:13:39.762Z,24.98
2022-12-11T06:16:06.674Z,21.05
2022-12-11T06:18:35.369Z,31.55
2022-12-11T06:21:01.713Z,30.00
2022-12-11T06:23:28.010Z,24.52
2022-12-11T06:25:54.254Z,32.65
2022-12-11T06:28:20.509Z,31.52
2022-12-11T06:30:48.090Z,29.02
2022-12-11T06:33:14.340Z,35.33
2022-12-11T06:35:42.433Z,24.02
2022-12-11T06:38:09.002Z,23.97
2022-12-11T06:40:35.291Z,28.63
2022-12-11T06:43:01.558Z,24.50
2022-12-11T06:45:27.861Z,31.98
2022-12-11T06:47:55.506Z,29.23
2022-12-11T06:50:21.792Z,27.42
2022-12-11T06:52:48.021Z,29.05
2022-12-11T06:55:14.344Z,22.65
2022-12-11T06:57:40.678Z,24.83
2022-12-11T07:00:07.466Z,29.52
2022-12-11T07:02:33.779Z,25.45
2022-12-11T07:05:01.442Z,30.02
2022-12-11T07:07:27.785Z,27.90
2022-12-11T07:09:54.066Z,26.17
2022-12-11T07:12:20.318Z,28.75
2022-12-11T07:14:46.626Z,28.45
2022-12-11T07:17:12.873Z,29.33
2022-12-11T07:19:39.130Z,21.75
2022-12-11T07:22:06.742Z,25.67
2022-12-11T07:24:33.033Z,25.95
2022-12-11T07:26:59.308Z,30.88
2022-12-11T07:29:25.614Z,24.92
2022-12-11T07:31:51.924Z,45.45
2022-12-11T07:34:18.230Z,28.77
2022-12-11T07:36:44.641Z,38.47
2022-12-11T07:39:12.585Z,27.25
2022-12-11T07:41:38.908Z,24.33
2022-12-11T07:44:09.982Z,24.45
2022-12-11T07:46:37.225Z,23.63
2022-12-11T07:49:04.520Z,22.80
2022-12-11T07:51:31.836Z,20.10
2022-12-11T07:53:58.940Z,25.42
2022-12-11T07:56:26.893Z,27.52
2022-12-11T07:58:53.465Z,30.23
2022-12-11T08:01:20.961Z,22.80
2022-12-11T08:03:47.436Z,24.75
2022-12-11T08:06:13.805Z,22.48
2022-12-11T08:08:40.377Z,27.35
2022-12-11T08:11:07.713Z,22.58
2022-12-11T08:13:35.598Z,21.60
2022-12-11T08:16:03.076Z,21.08
2022-12-11T08:18:29.369Z,19.15
2022-12-11T08:20:55.656Z,23.17
2022-12-11T08:23:21.992Z,33.95
2022-12-11T08:25:48.905Z,32.90
2022-12-11T08:28:15.185Z,25.38
2022-12-11T08:30:42.886Z,26.88
2022-12-11T08:33:09.173Z,29.48
2022-12-11T08:35:38.354Z,23.52
2022-12-11T08:38:04.649Z,25.23
2022-12-11T08:40:30.922Z,28.25
2022-12-11T08:42:57.415Z,24.30
2022-12-11T08:45:23.777Z,26.20
2022-12-11T08:47:51.449Z,26.45
2022-12-11T08:50:17.879Z,20.35
2022-12-11T08:52:44.218Z,24.65
2022-12-11T08:55:10.693Z,20.10
2022-12-11T08:57:37.287Z,21.17
2022-12-11T09:00:03.850Z,21.65
2022-12-11T09:02:30.193Z,24.67
2022-12-11T09:04:57.905Z,27.23
2022-12-11T09:07:24.214Z,26.33
2022-12-11T09:09:50.454Z,38.40
2022-12-11T09:12:16.707Z,35.90
2022-12-11T09:14:42.951Z,35.20
2022-12-11T09:17:09.200Z,30.75
2022-12-11T09:19:35.422Z,28.77
2022-12-11T09:22:03.041Z,22.80
2022-12-11T09:24:29.394Z,23.73
2022-12-11T09:26:55.690Z,29.25
2022-12-11T09:29:21.963Z,31.75
2022-12-11T09:31:48.247Z,24.35
2022-12-11T09:34:14.538Z,29.45
2022-12-11T09:36:41.852Z,27.45
2022-12-11T09:39:11.372Z,30.70
2022-12-11T09:41:47.643Z,37.78
2022-12-11T09:44:20.099Z,33.00
2022-12-11T09:46:46.824Z,34.30
2022-12-11T09:49:17.774Z,37.80
2022-12-11T09:51:47.035Z,36.22
2022-12-11T09:54:14.903Z,34.97
2022-12-11T09:56:42.567Z,36.15
2022-12-11T09:59:13.220Z,38.70
2022-12-11T10:01:42.769Z,33.05
2022-12-11T10:04:17.175Z,27.85
2022-12-11T10:06:46.887Z,32.70
2022-12-11T10:09:19.371Z,29.13
2022-12-11T10:12:06.669Z,41.20
2022-12-11T10:14:39.849Z,39.95
2022-12-11T10:17:10.633Z,35.10
2022-12-11T10:19:37.012Z,36.25
2022-12-11T10:22:03.671Z,37.58
2022-12-11T10:25:09.553Z,36.85
2022-12-11T10:27:21.060Z,33.40
2022-12-11T10:29:47.556Z,41.58
2022-12-11T10:32:21.025Z,34.88
2022-12-11T10:34:49.078Z,44.30
2022-12-11T10:37:15.364Z,38.17
2022-12-11T10:39:43.000Z,31.92
2022-12-11T10:42:14.169Z,39.03
2022-12-11T10:44:40.461Z,30.05
2022-12-11T10:47:09.901Z,36.78
2022-12-11T10:49:36.984Z,37.47
2022-12-11T10:52:09.877Z,32.47
2022-12-11T10:54:37.777Z,34.42
2022-12-11T10:57:06.510Z,32.85
2022-12-11T10:59:34.282Z,33.58
2022-12-11T11:02:00.880Z,31.88
2022-12-11T11:04:29.418Z,47.75
2022-12-11T11:07:01.108Z,46.28
2022-12-11T11:09:28.801Z,38.05
2022-12-11T11:11:55.069Z,42.75
2022-12-11T11:14:22.678Z,40.90
2022-12-11T11:16:49.630Z,40.80
2022-12-11T11:19:22.035Z,50.55
2022-12-11T11:21:49.984Z,51.33
2022-12-11T11:24:34.218Z,47.88
2022-12-11T11:27:15.976Z,50.67
2022-12-11T11:29:45.781Z,44.35
2022-12-11T11:32:16.917Z,38.42
2022-12-11T11:34:43.215Z,32.00
2022-12-11T11:37:21.950Z,48.40
2022-12-11T11:39:50.029Z,38.20
2022-12-11T11:42:18.899Z,28.00
2022-12-11T11:44:57.839Z,41.67
2022-12-11T11:47:25.935Z,42.15
2022-12-11T11:49:55.069Z,46.70
2022-12-11T11:52:24.302Z,56.60
2022-12-11T11:54:52.806Z,43.03
2022-12-11T11:57:22.824Z,46.20
2022-12-11T11:59:51.931Z,38.83
2022-12-11T12:04:45.598Z,43.13
2022-12-11T12:07:17.858Z,49.08
2022-12-11T12:09:47.988Z,48.08
2022-12-11T12:12:24.761Z,47.88
2022-12-11T12:15:01.883Z,46.70
2022-12-11T12:17:31.536Z,40.33
2022-12-11T12:20:03.131Z,48.63
2022-12-11T12:22:39.923Z,44.75
2022-12-11T12:25:14.323Z,43.83
2022-12-11T12:27:53.291Z,33.88
2022-12-11T12:32:55.692Z,53.33
2022-12-11T12:35:27.115Z,57.97
2022-12-11T12:37:56.994Z,38.53
2022-12-11T12:40:29.079Z,44.33
2022-12-11T12:43:00.116Z,52.53
2022-12-11T12:45:27.901Z,39.28
2022-12-11T12:47:55.515Z,59.90
2022-12-11T12:50:23.803Z,43.78
2022-12-11T12:52:50.607Z,31.97
2022-12-11T12:55:19.075Z,47.67
2022-12-11T12:57:46.939Z,38.30
2022-12-11T13:00:13.882Z,46.00
2022-12-11T13:02:47.743Z,50.15
2022-12-11T13:05:20.712Z,38.13
2022-12-11T13:07:54.009Z,46.13
2022-12-11T13:10:22.931Z,42.97
2022-12-11T13:12:49.239Z,32.30
2022-12-11T13:15:25.368Z,49.88
2022-12-11T13:17:51.667Z,39.80
2022-12-11T13:20:20.002Z,51.60
2022-12-11T13:23:05.164Z,49.22
2022-12-11T13:25:45.163Z,47.55
2022-12-11T13:28:20.080Z,52.25
2022-12-11T13:30:57.363Z,39.25
2022-12-11T13:33:23.723Z,48.80
2022-12-11T13:36:02.593Z,42.85
2022-12-11T13:38:28.871Z,41.53
2022-12-11T13:40:56.527Z,43.33
2022-12-11T13:43:25.603Z,35.25
2022-12-11T13:48:21.032Z,33.95
2022-12-11T13:50:47.728Z,32.75
2022-12-11T13:53:15.808Z,33.08
2022-12-11T13:55:42.073Z,32.22
2022-12-11T13:58:16.433Z,32.58
2022-12-11T14:00:42.778Z,35.25
2022-12-11T14:03:10.229Z,34.78
2022-12-11T14:05:36.585Z,31.67
2022-12-11T14:08:07.304Z,35.67
2022-12-11T14:10:33.624Z,34.08
2022-12-11T14:13:01.492Z,43.30
2022-12-11T14:15:29.817Z,30.38
2022-12-11T14:17:56.373Z,37.40
2022-12-11T14:20:24.069Z,31.02
2022-12-11T14:22:50.380Z,30.40
2022-12-11T14:25:19.260Z,40.30
2022-12-11T14:27:47.686Z,41.03
2022-12-11T14:30:20.164Z,34.75
2022-12-11T14:32:48.573Z,47.45
2022-12-11T14:35:18.249Z,40.50
2022-12-11T14:37:44.665Z,31.42
2022-12-11T14:40:15.777Z,37.40
2022-12-11T14:42:44.094Z,51.85
2022-12-11T14:45:16.188Z,36.55
2022-12-11T14:47:43.289Z,31.80
2022-12-11T14:50:15.401Z,45.72
2022-12-11T14:52:43.455Z,36.42
2022-12-11T14:55:15.413Z,36.97
2022-12-11T14:57:43.772Z,37.38
2022-12-11T15:00:21.916Z,37.40
2022-12-11T15:02:56.487Z,37.37
2022-12-11T15:05:24.228Z,62.10
2022-12-11T15:07:56.038Z,33.65
2022-12-11T15:10:23.889Z,31.77
2022-12-11T15:12:50.261Z,39.88
2022-12-11T15:15:16.765Z,37.55
2022-12-11T15:17:46.093Z,36.15
2022-12-11T15:20:22.373Z,27.77
2022-12-11T15:22:50.575Z,30.40
2022-12-11T15:25:18.891Z,39.83
2022-12-11T15:27:45.218Z,35.20
2022-12-11T15:30:15.446Z,45.28
2022-12-11T15:32:41.752Z,37.35
2022-12-11T15:35:21.197Z,30.50
2022-12-11T15:37:53.397Z,33.10
2022-12-11T15:40:19.704Z,31.63
2022-12-11T15:42:46.210Z,28.00
2022-12-11T15:45:16.085Z,31.38
2022-12-11T15:47:42.445Z,35.30
2022-12-11T15:50:14.709Z,43.00
2022-12-11T15:52:41.041Z,36.83
2022-12-11T15:55:09.314Z,31.58
2022-12-11T15:57:36.051Z,38.28
2022-12-11T16:00:02.931Z,37.08
2022-12-11T16:02:31.266Z,33.22
2022-12-11T16:04:57.647Z,42.67
2022-12-11T16:07:24.659Z,39.42
2022-12-11T16:09:51.750Z,33.47
2022-12-11T16:12:19.618Z,41.53
2022-12-11T16:14:46.294Z,30.67
2022-12-11T16:17:13.398Z,37.85
2022-12-11T16:19:40.722Z,37.63
2022-12-11T16:22:07.481Z,31.52
2022-12-11T16:24:33.762Z,33.92
2022-12-11T16:27:00.039Z,35.22
2022-12-11T16:29:27.994Z,45.65
2022-12-11T16:31:54.270Z,41.03
2022-12-11T16:34:24.273Z,46.35
2022-12-11T16:36:50.532Z,48.17
2022-12-11T16:39:16.806Z,50.95
2022-12-11T16:41:43.054Z,49.75
2022-12-11T16:44:09.350Z,45.47
2022-12-11T16:46:37.317Z,41.95
2022-12-11T16:49:03.887Z,26.77
2022-12-11T16:51:30.199Z,39.65
2022-12-11T16:53:56.464Z,30.70
2022-12-11T16:56:22.782Z,38.10
2022-12-11T16:58:49.102Z,34.08
2022-12-11T17:01:15.520Z,36.03
2022-12-11T17:03:43.597Z,34.00
2022-12-11T17:06:10.635Z,33.97
2022-12-11T17:08:36.973Z,27.67
2022-12-11T17:11:04.651Z,27.95
2022-12-11T17:13:35.842Z,27.33
2022-12-11T17:16:04.095Z,27.80
2022-12-11T17:18:30.370Z,33.22
2022-12-11T17:20:57.994Z,33.83
2022-12-11T17:23:24.283Z,34.70
2022-12-11T17:25:50.554Z,35.53
2022-12-11T17:28:16.852Z,30.30
2022-12-11T17:30:43.636Z,31.23
2022-12-11T17:33:10.300Z,34.25
2022-12-11T17:35:36.964Z,32.63
2022-12-11T17:38:05.006Z,27.48
2022-12-11T17:40:31.273Z,37.63
2022-12-11T17:42:57.540Z,32.17
2022-12-11T17:45:23.819Z,33.33
2022-12-11T17:47:50.068Z,44.42
2022-12-11T17:50:16.340Z,35.40
2022-12-11T17:52:44.299Z,40.55
2022-12-11T17:55:12.626Z,37.50
2022-12-11T17:57:39.148Z,31.50
2022-12-11T18:00:06.108Z,32.03
2022-12-11T18:02:38.661Z,31.25
2022-12-11T18:05:05.176Z,35.28
2022-12-11T18:07:35.604Z,34.45
2022-12-11T18:10:02.102Z,31.48
2022-12-11T18:12:29.699Z,37.70
2022-12-11T18:14:59.016Z,28.13
2022-12-11T18:17:25.307Z,32.60
2022-12-11T18:19:51.561Z,27.42
2022-12-11T18:22:17.816Z,30.02
2022-12-11T18:24:44.088Z,31.42
2022-12-11T18:27:10.328Z,24.15
2022-12-11T18:29:37.980Z,28.45
2022-12-11T18:32:04.517Z,25.50
2022-12-11T18:34:30.836Z,33.60
2022-12-11T18:36:57.134Z,33.28
2022-12-11T18:39:23.801Z,28.58
2022-12-11T18:42:03.482Z,30.65
2022-12-11T18:44:37.521Z,35.17
2022-12-11T18:47:03.792Z,31.15
2022-12-11T18:49:30.277Z,30.15
2022-12-11T18:51:58.364Z,30.50
2022-12-11T18:54:24.688Z,36.85
2022-12-11T18:56:51.013Z,34.72
2022-12-11T18:59:17.285Z,35.15
2022-12-11T19:01:44.948Z,33.22
2022-12-11T19:04:11.301Z,36.60
2022-12-11T19:06:37.760Z,34.95
2022-12-11T19:09:04.896Z,29.10
2022-12-11T19:11:32.489Z,28.27
2022-12-11T19:13:58.842Z,29.58
2022-12-11T19:16:26.270Z,31.38
2022-12-11T19:18:53.985Z,31.95
2022-12-11T19:21:20.376Z,29.67
2022-12-11T19:23:46.896Z,35.00
2022-12-11T19:26:13.795Z,35.55
2022-12-11T19:28:40.302Z,42.80
2022-12-11T19:31:08.217Z,38.60
2022-12-11T19:33:34.554Z,34.80
2022-12-11T19:36:03.020Z,33.10
2022-12-11T19:38:29.301Z,36.78
2022-12-11T19:40:55.637Z,33.70
2022-12-11T19:43:21.893Z,31.17
2022-12-11T19:45:48.207Z,30.67
2022-12-11T19:48:14.634Z,29.13
2022-12-11T19:50:40.914Z,29.40
2022-12-11T19:53:08.693Z,38.85
2022-12-11T19:55:34.974Z,42.33
2022-12-11T19:58:01.328Z,33.30
2022-12-11T20:00:27.660Z,35.75
2022-12-11T20:02:53.954Z,34.85
2022-12-11T20:05:20.221Z,30.17
2022-12-11T20:07:46.602Z,33.85
2022-12-11T20:10:14.249Z,28.20
2022-12-11T20:12:40.490Z,30.85
2022-12-11T20:15:07.197Z,37.63
2022-12-11T20:17:33.625Z,34.65
2022-12-11T20:20:00.197Z,28.90
2022-12-11T20:22:26.512Z,33.17
2022-12-11T20:24:52.838Z,33.47
2022-12-11T20:27:20.494Z,30.55
2022-12-11T20:29:46.763Z,33.50
2022-12-11T20:32:13.092Z,36.75
2022-12-11T20:34:39.439Z,38.47
2022-12-11T20:37:05.831Z,34.30
2022-12-11T20:39:32.185Z,32.20
2022-12-11T20:41:58.455Z,30.48
2022-12-11T20:44:26.090Z,34.15
2022-12-11T20:46:52.345Z,32.33
2022-12-11T20:49:18.639Z,35.60
2022-12-11T20:51:44.897Z,27.17
2022-12-11T20:54:11.768Z,25.20
2022-12-11T20:56:38.327Z,27.42
2022-12-11T20:59:04.600Z,29.38
2022-12-11T21:01:32.826Z,36.33
2022-12-11T21:03:59.370Z,29.00
2022-12-11T21:06:26.243Z,32.85
2022-12-11T21:08:52.826Z,28.92
2022-12-11T21:11:19.441Z,28.10
2022-12-11T21:13:49.481Z,30.02
2022-12-11T21:16:17.874Z,28.15
2022-12-11T21:18:45.534Z,42.63
2022-12-11T21:21:12.246Z,34.00
2022-12-11T21:23:38.628Z,31.90
2022-12-11T21:26:05.370Z,31.27
2022-12-11T21:28:35.517Z,32.28
2022-12-11T21:31:03.098Z,36.47
2022-12-11T21:33:29.406Z,40.05
2022-12-11T21:35:57.925Z,31.92
2022-12-11T21:38:24.543Z,37.38
2022-12-11T21:40:51.310Z,32.67
2022-12-11T21:43:17.616Z,42.08
2022-12-11T21:46:01.330Z,42.97
2022-12-11T21:48:27.918Z,30.00
2022-12-11T21:50:54.158Z,28.38
2022-12-11T21:53:21.736Z,32.33
2022-12-11T21:55:48.009Z,35.33
2022-12-11T21:58:14.289Z,30.08
2022-12-11T22:00:40.701Z,26.80
2022-12-11T22:03:07.069Z,34.72
2022-12-11T22:05:33.345Z,34.38
2022-12-11T22:07:59.712Z,26.02
2022-12-11T22:10:27.468Z,33.38
2022-12-11T22:12:53.737Z,33.42
2022-12-11T22:15:20.073Z,26.75
2022-12-11T22:17:46.373Z,30.67
2022-12-11T22:20:12.630Z,30.75
2022-12-11T22:22:38.905Z,26.55
2022-12-11T22:25:05.768Z,40.03
2022-12-11T22:27:33.428Z,29.23
2022-12-11T22:30:00.279Z,39.80
2022-12-11T22:32:26.565Z,34.47
2022-12-11T22:34:52.842Z,32.50
2022-12-11T22:37:19.155Z,29.60
2022-12-11T22:39:45.466Z,27.90
2022-12-11T22:42:11.738Z,20.23
2022-12-11T22:44:39.395Z,31.42
2022-12-11T22:47:05.645Z,25.90
2022-12-11T22:49:31.972Z,23.33
2022-12-11T22:51:58.265Z,31.25
2022-12-11T22:54:24.610Z,25.90
2022-12-11T22:56:50.871Z,30.33
2022-12-11T22:59:17.147Z,27.88
2022-12-11T23:01:44.765Z,37.65
2022-12-11T23:04:11.057Z,29.85
2022-12-11T23:06:37.505Z,28.38
2022-12-11T23:09:04.089Z,28.48
2022-12-11T23:11:31.678Z,28.90
2022-12-11T23:13:58.167Z,27.60
2022-12-11T23:16:26.540Z,24.63
2022-12-11T23:18:54.278Z,31.77
2022-12-11T23:21:21.126Z,27.70
2022-12-11T23:23:47.511Z,24.40
2022-12-11T23:26:14.237Z,22.58
2022-12-11T23:28:41.882Z,22.95
2022-12-11T23:31:08.845Z,23.77
2022-12-11T23:33:35.185Z,28.33
2022-12-11T23:36:03.171Z,31.15
2022-12-11T23:38:29.678Z,26.40
2022-12-11T23:40:56.202Z,28.92
2022-12-11T23:43:22.835Z,23.33
2022-12-11T23:45:49.112Z,20.65
2022-12-11T23:48:15.552Z,17.63
2022-12-11T23:50:42.396Z,40.30
2022-12-11T23:53:10.290Z,30.75
2022-12-11T23:55:38.484Z,31.92
2022-12-11T23:58:04.725Z,25.43
